sensor_id;sensor_type;location;lat;lon;timestamp;pressure;altitude;pressure_sealevel;temperature;humidity
73651;BME280;61944;52.538;6.108;2023-03-14T00:00:52;98691.19;;;10.58;100.00
73651;BME280;61944;52.538;6.108;2023-03-14T00:03:18;98690.81;;;10.56;100.00
73651;BME280;61944;52.538;6.108;2023-03-14T00:05:43;98683.13;;;10.60;100.00
73651;BME280;61944;52.538;6.108;2023-03-14T00:08:09;98706.47;;;10.53;100.00
73651;BME280;61944;52.538;6.108;2023-03-14T00:10:36;98703.25;;;10.55;100.00
73651;BME280;61944;52.538;6.108;2023-03-14T00:13:02;98694.78;;;10.38;100.00
73651;BME280;61944;52.538;6.108;2023-03-14T00:15:27;98692.59;;;10.26;100.00
73651;BME280;61944;52.538;6.108;2023-03-14T00:17:52;98692.44;;;10.13;100.00
73651;BME280;61944;52.538;6.108;2023-03-14T00:20:18;98710.34;;;10.16;100.00
73651;BME280;61944;52.538;6.108;2023-03-14T00:22:43;98701.75;;;10.07;100.00
73651;BME280;61944;52.538;6.108;2023-03-14T00:25:10;98699.00;;;10.03;100.00
73651;BME280;61944;52.538;6.108;2023-03-14T00:27:36;98682.75;;;9.98;100.00
73651;BME280;61944;52.538;6.108;2023-03-14T00:30:02;98688.75;;;9.96;100.00
73651;BME280;61944;52.538;6.108;2023-03-14T00:32:28;98687.66;;;9.90;100.00
73651;BME280;61944;52.538;6.108;2023-03-14T00:34:53;98687.31;;;9.88;100.00
73651;BME280;61944;52.538;6.108;2023-03-14T00:37:19;98691.31;;;9.87;100.00
73651;BME280;61944;52.538;6.108;2023-03-14T00:39:44;98685.22;;;9.92;100.00
73651;BME280;61944;52.538;6.108;2023-03-14T00:42:09;98673.31;;;9.88;100.00
73651;BME280;61944;52.538;6.108;2023-03-14T00:44:35;98685.72;;;9.87;100.00
73651;BME280;61944;52.538;6.108;2023-03-14T00:47:00;98687.81;;;9.83;100.00
73651;BME280;61944;52.538;6.108;2023-03-14T00:49:25;98684.78;;;9.74;100.00
73651;BME280;61944;52.538;6.108;2023-03-14T00:51:51;98696.13;;;9.87;100.00
73651;BME280;61944;52.538;6.108;2023-03-14T00:54:18;98700.53;;;9.84;100.00
73651;BME280;61944;52.538;6.108;2023-03-14T00:56:43;98692.59;;;9.83;100.00
73651;BME280;61944;52.538;6.108;2023-03-14T00:59:08;98696.91;;;9.87;100.00
73651;BME280;61944;52.538;6.108;2023-03-14T01:01:34;98691.69;;;9.89;100.00
73651;BME280;61944;52.538;6.108;2023-03-14T01:03:59;98682.16;;;9.87;100.00
73651;BME280;61944;52.538;6.108;2023-03-14T01:06:27;98679.78;;;9.85;100.00
73651;BME280;61944;52.538;6.108;2023-03-14T01:08:53;98684.59;;;9.85;100.00
73651;BME280;61944;52.538;6.108;2023-03-14T01:11:31;98681.84;;;9.81;100.00
73651;BME280;61944;52.538;6.108;2023-03-14T01:13:57;98683.84;;;9.81;100.00
73651;BME280;61944;52.538;6.108;2023-03-14T01:16:25;98679.91;;;9.78;100.00
73651;BME280;61944;52.538;6.108;2023-03-14T01:18:51;98675.22;;;9.71;100.00
73651;BME280;61944;52.538;6.108;2023-03-14T01:21:19;98678.38;;;9.73;100.00
73651;BME280;61944;52.538;6.108;2023-03-14T01:23:47;98675.16;;;9.75;100.00
73651;BME280;61944;52.538;6.108;2023-03-14T01:26:15;98687.56;;;9.74;100.00
73651;BME280;61944;52.538;6.108;2023-03-14T01:28:41;98686.41;;;9.71;100.00
73651;BME280;61944;52.538;6.108;2023-03-14T01:31:09;98697.53;;;9.75;100.00
73651;BME280;61944;52.538;6.108;2023-03-14T01:33:35;98688.72;;;9.76;100.00
73651;BME280;61944;52.538;6.108;2023-03-14T01:36:01;98686.28;;;9.79;100.00
73651;BME280;61944;52.538;6.108;2023-03-14T01:38:31;98689.91;;;9.75;100.00
73651;BME280;61944;52.538;6.108;2023-03-14T01:40:57;98683.06;;;9.80;100.00
73651;BME280;61944;52.538;6.108;2023-03-14T01:43:23;98671.22;;;9.72;100.00
73651;BME280;61944;52.538;6.108;2023-03-14T01:48:28;98670.38;;;9.75;100.00
73651;BME280;61944;52.538;6.108;2023-03-14T01:50:57;98664.50;;;9.70;100.00
73651;BME280;61944;52.538;6.108;2023-03-14T01:53:23;98663.31;;;9.67;100.00
73651;BME280;61944;52.538;6.108;2023-03-14T01:55:50;98665.34;;;9.67;100.00
73651;BME280;61944;52.538;6.108;2023-03-14T01:58:18;98672.44;;;9.71;100.00
73651;BME280;61944;52.538;6.108;2023-03-14T02:00:45;98666.06;;;9.71;100.00
73651;BME280;61944;52.538;6.108;2023-03-14T02:03:14;98671.28;;;9.69;100.00
73651;BME280;61944;52.538;6.108;2023-03-14T02:05:42;98676.94;;;9.65;100.00
73651;BME280;61944;52.538;6.108;2023-03-14T02:08:11;98664.19;;;9.64;100.00
73651;BME280;61944;52.538;6.108;2023-03-14T02:10:41;98668.19;;;9.63;100.00
73651;BME280;61944;52.538;6.108;2023-03-14T02:13:08;98664.19;;;9.64;100.00
73651;BME280;61944;52.538;6.108;2023-03-14T02:15:35;98676.28;;;9.57;100.00
73651;BME280;61944;52.538;6.108;2023-03-14T02:18:02;98670.31;;;9.55;100.00
73651;BME280;61944;52.538;6.108;2023-03-14T02:22:59;98672.50;;;9.44;100.00
73651;BME280;61944;52.538;6.108;2023-03-14T02:25:34;98670.78;;;9.27;100.00
73651;BME280;61944;52.538;6.108;2023-03-14T02:28:04;98666.88;;;9.21;100.00
73651;BME280;61944;52.538;6.108;2023-03-14T02:30:31;98669.63;;;9.24;100.00
73651;BME280;61944;52.538;6.108;2023-03-14T02:33:05;98657.91;;;9.09;100.00
73651;BME280;61944;52.538;6.108;2023-03-14T02:38:26;98654.69;;;9.11;100.00
73651;BME280;61944;52.538;6.108;2023-03-14T02:40:54;98656.25;;;9.12;100.00
73651;BME280;61944;52.538;6.108;2023-03-14T02:43:19;98651.94;;;9.07;100.00
73651;BME280;61944;52.538;6.108;2023-03-14T02:45:46;98646.94;;;8.95;100.00
73651;BME280;61944;52.538;6.108;2023-03-14T02:48:27;98639.31;;;8.99;100.00
73651;BME280;61944;52.538;6.108;2023-03-14T02:50:57;98639.31;;;8.99;100.00
73651;BME280;61944;52.538;6.108;2023-03-14T02:53:33;98633.41;;;8.93;100.00
73651;BME280;61944;52.538;6.108;2023-03-14T02:56:00;98632.47;;;9.04;100.00
73651;BME280;61944;52.538;6.108;2023-03-14T02:58:27;98632.59;;;8.97;100.00
73651;BME280;61944;52.538;6.108;2023-03-14T03:00:53;98626.69;;;8.91;100.00
73651;BME280;61944;52.538;6.108;2023-03-14T03:03:18;98626.50;;;9.02;100.00
73651;BME280;61944;52.538;6.108;2023-03-14T03:05:52;98630.22;;;8.95;100.00
73651;BME280;61944;52.538;6.108;2023-03-14T03:08:18;98644.91;;;8.99;100.00
73651;BME280;61944;52.538;6.108;2023-03-14T03:10:44;98635.66;;;9.02;100.00
73651;BME280;61944;52.538;6.108;2023-03-14T03:13:09;98631.69;;;9.03;100.00
73651;BME280;61944;52.538;6.108;2023-03-14T03:15:34;98628.53;;;9.01;100.00
73651;BME280;61944;52.538;6.108;2023-03-14T03:18:00;98629.38;;;8.98;100.00
73651;BME280;61944;52.538;6.108;2023-03-14T03:20:25;98627.75;;;9.01;100.00
73651;BME280;61944;52.538;6.108;2023-03-14T03:22:51;98634.97;;;8.98;100.00
73651;BME280;61944;52.538;6.108;2023-03-14T03:25:16;98627.41;;;8.95;100.00
73651;BME280;61944;52.538;6.108;2023-03-14T03:27:41;98634.22;;;8.94;100.00
73651;BME280;61944;52.538;6.108;2023-03-14T03:30:08;98633.00;;;8.95;100.00
73651;BME280;61944;52.538;6.108;2023-03-14T03:32:34;98630.56;;;8.97;100.00
73651;BME280;61944;52.538;6.108;2023-03-14T03:34:59;98623.44;;;8.96;100.00
73651;BME280;61944;52.538;6.108;2023-03-14T03:37:24;98624.25;;;8.93;100.00
73651;BME280;61944;52.538;6.108;2023-03-14T03:39:50;98625.84;;;8.94;100.00
73651;BME280;61944;52.538;6.108;2023-03-14T03:42:17;98613.84;;;8.97;100.00
73651;BME280;61944;52.538;6.108;2023-03-14T03:44:42;98611.53;;;8.92;100.00
73651;BME280;61944;52.538;6.108;2023-03-14T03:47:08;98623.88;;;8.91;100.00
73651;BME280;61944;52.538;6.108;2023-03-14T03:49:33;98627.41;;;8.95;100.00
73651;BME280;61944;52.538;6.108;2023-03-14T03:51:59;98619.53;;;8.90;100.00
73651;BME280;61944;52.538;6.108;2023-03-14T03:54:25;98621.47;;;8.93;100.00
73651;BME280;61944;52.538;6.108;2023-03-14T03:56:50;98625.38;;;8.99;100.00
73651;BME280;61944;52.538;6.108;2023-03-14T03:59:16;98627.06;;;8.93;100.00
73651;BME280;61944;52.538;6.108;2023-03-14T04:01:41;98620.63;;;8.96;100.00
73651;BME280;61944;52.538;6.108;2023-03-14T04:04:07;98623.84;;;8.94;100.00
73651;BME280;61944;52.538;6.108;2023-03-14T04:06:32;98622.25;;;8.93;100.00
73651;BME280;61944;52.538;6.108;2023-03-14T04:08:58;98626.22;;;8.96;100.00
73651;BME280;61944;52.538;6.108;2023-03-14T04:11:24;98617.34;;;9.01;100.00
73651;BME280;61944;52.538;6.108;2023-03-14T04:13:49;98627.28;;;9.02;100.00
73651;BME280;61944;52.538;6.108;2023-03-14T04:16:17;98628.53;;;9.01;100.00
73651;BME280;61944;52.538;6.108;2023-03-14T04:18:43;98630.94;;;8.99;100.00
73651;BME280;61944;52.538;6.108;2023-03-14T04:21:09;98626.16;;;9.00;100.00
73651;BME280;61944;52.538;6.108;2023-03-14T04:23:34;98625.69;;;9.05;100.00
73651;BME280;61944;52.538;6.108;2023-03-14T04:26:00;98621.63;;;9.09;100.00
73651;BME280;61944;52.538;6.108;2023-03-14T04:28:25;98628.47;;;9.05;100.00
73651;BME280;61944;52.538;6.108;2023-03-14T04:30:50;98623.69;;;9.05;100.00
73651;BME280;61944;52.538;6.108;2023-03-14T04:33:16;98620.09;;;9.05;100.00
73651;BME280;61944;52.538;6.108;2023-03-14T04:35:45;98606.81;;;9.12;100.00
73651;BME280;61944;52.538;6.108;2023-03-14T04:38:11;98613.66;;;9.08;100.00
73651;BME280;61944;52.538;6.108;2023-03-14T04:40:38;98615.63;;;9.11;100.00
73651;BME280;61944;52.538;6.108;2023-03-14T04:43:04;98615.63;;;9.11;100.00
73651;BME280;61944;52.538;6.108;2023-03-14T04:45:29;98620.41;;;9.10;100.00
73651;BME280;61944;52.538;6.108;2023-03-14T04:47:54;98613.19;;;9.13;100.00
73651;BME280;61944;52.538;6.108;2023-03-14T04:50:20;98596.13;;;9.07;100.00
73651;BME280;61944;52.538;6.108;2023-03-14T04:52:45;98598.56;;;9.05;100.00
73651;BME280;61944;52.538;6.108;2023-03-14T04:55:11;98586.13;;;9.10;100.00
73651;BME280;61944;52.538;6.108;2023-03-14T04:57:36;98597.34;;;9.06;100.00
73651;BME280;61944;52.538;6.108;2023-03-14T05:00:02;98604.09;;;9.09;100.00
73651;BME280;61944;52.538;6.108;2023-03-14T05:02:31;98595.03;;;9.01;100.00
73651;BME280;61944;52.538;6.108;2023-03-14T05:04:57;98593.34;;;9.07;100.00
73651;BME280;61944;52.538;6.108;2023-03-14T05:07:22;98595.72;;;9.09;100.00
73651;BME280;61944;52.538;6.108;2023-03-14T05:09:47;98599.66;;;9.11;100.00
73651;BME280;61944;52.538;6.108;2023-03-14T05:12:13;98594.19;;;9.04;100.00
73651;BME280;61944;52.538;6.108;2023-03-14T05:14:38;98596.59;;;9.02;100.00
73651;BME280;61944;52.538;6.108;2023-03-14T05:17:04;98587.22;;;8.92;100.00
73651;BME280;61944;52.538;6.108;2023-03-14T05:19:30;98595.94;;;8.94;100.00
73651;BME280;61944;52.538;6.108;2023-03-14T05:21:55;98586.78;;;8.94;100.00
73651;BME280;61944;52.538;6.108;2023-03-14T05:24:21;98596.72;;;8.95;100.00
73651;BME280;61944;52.538;6.108;2023-03-14T05:26:46;98581.69;;;8.89;100.00
73651;BME280;61944;52.538;6.108;2023-03-14T05:29:12;98575.25;;;8.92;100.00
73651;BME280;61944;52.538;6.108;2023-03-14T05:31:37;98586.06;;;8.90;100.00
73651;BME280;61944;52.538;6.108;2023-03-14T05:34:02;98583.94;;;8.98;100.00
73651;BME280;61944;52.538;6.108;2023-03-14T05:36:28;98588.00;;;8.93;100.00
73651;BME280;61944;52.538;6.108;2023-03-14T05:38:53;98580.09;;;8.88;100.00
73651;BME280;61944;52.538;6.108;2023-03-14T05:41:19;98586.06;;;8.90;100.00
73651;BME280;61944;52.538;6.108;2023-03-14T05:43:44;98583.25;;;8.90;100.00
73651;BME280;61944;52.538;6.108;2023-03-14T05:46:09;98586.88;;;8.87;100.00
73651;BME280;61944;52.538;6.108;2023-03-14T05:48:35;98588.94;;;8.83;100.00
73651;BME280;61944;52.538;6.108;2023-03-14T05:51:00;98593.78;;;8.79;100.00
73651;BME280;61944;52.538;6.108;2023-03-14T05:53:25;98594.47;;;8.86;100.00
73651;BME280;61944;52.538;6.108;2023-03-14T05:55:54;98592.47;;;8.87;100.00
73651;BME280;61944;52.538;6.108;2023-03-14T05:58:23;98600.59;;;8.78;100.00
73651;BME280;61944;52.538;6.108;2023-03-14T06:00:49;98590.63;;;8.77;100.00
73651;BME280;61944;52.538;6.108;2023-03-14T06:03:14;98590.59;;;8.80;100.00
73651;BME280;61944;52.538;6.108;2023-03-14T06:05:40;98592.09;;;8.85;100.00
73651;BME280;61944;52.538;6.108;2023-03-14T06:08:05;98591.84;;;8.75;100.00
73651;BME280;61944;52.538;6.108;2023-03-14T06:10:30;98595.38;;;8.80;100.00
73651;BME280;61944;52.538;6.108;2023-03-14T06:12:56;98589.00;;;8.79;100.00
73651;BME280;61944;52.538;6.108;2023-03-14T06:15:21;98577.91;;;8.75;100.00
73651;BME280;61944;52.538;6.108;2023-03-14T06:17:47;98576.59;;;8.84;100.00
73651;BME280;61944;52.538;6.108;2023-03-14T06:20:12;98577.03;;;8.79;100.00
73651;BME280;61944;52.538;6.108;2023-03-14T06:22:38;98573.78;;;8.84;100.00
73651;BME280;61944;52.538;6.108;2023-03-14T06:25:05;98575.84;;;8.80;100.00
73651;BME280;61944;52.538;6.108;2023-03-14T06:27:30;98576.22;;;8.82;100.00
73651;BME280;61944;52.538;6.108;2023-03-14T06:29:55;98580.19;;;8.81;100.00
73651;BME280;61944;52.538;6.108;2023-03-14T06:32:21;98583.00;;;8.81;100.00
73651;BME280;61944;52.538;6.108;2023-03-14T06:34:46;98587.06;;;8.76;100.00
73651;BME280;61944;52.538;6.108;2023-03-14T06:37:12;98582.16;;;8.84;100.00
73651;BME280;61944;52.538;6.108;2023-03-14T06:39:37;98588.16;;;8.82;100.00
73651;BME280;61944;52.538;6.108;2023-03-14T06:42:04;98586.16;;;8.83;100.00
73651;BME280;61944;52.538;6.108;2023-03-14T06:44:29;98584.63;;;8.78;100.00
73651;BME280;61944;52.538;6.108;2023-03-14T06:46:55;98589.69;;;8.87;100.00
73651;BME280;61944;52.538;6.108;2023-03-14T06:49:20;98594.53;;;8.83;100.00
73651;BME280;61944;52.538;6.108;2023-03-14T06:51:46;98593.78;;;8.79;100.00
73651;BME280;61944;52.538;6.108;2023-03-14T06:54:11;98677.94;;;8.73;100.00
73651;BME280;61944;52.538;6.108;2023-03-14T06:56:37;98703.69;;;8.54;100.00
73651;BME280;61944;52.538;6.108;2023-03-14T06:59:02;98700.16;;;8.50;100.00
73651;BME280;61944;52.538;6.108;2023-03-14T07:01:28;98707.66;;;8.19;100.00
73651;BME280;61944;52.538;6.108;2023-03-14T07:03:55;98711.44;;;8.35;100.00
73651;BME280;61944;52.538;6.108;2023-03-14T07:06:21;98714.09;;;8.50;100.00
73651;BME280;61944;52.538;6.108;2023-03-14T07:08:46;98720.31;;;8.27;100.00
73651;BME280;61944;52.538;6.108;2023-03-14T07:11:12;98731.84;;;7.87;100.00
73651;BME280;61944;52.538;6.108;2023-03-14T07:13:38;98742.09;;;7.98;100.00
73651;BME280;61944;52.538;6.108;2023-03-14T07:16:05;98753.06;;;7.74;100.00
73651;BME280;61944;52.538;6.108;2023-03-14T07:18:31;98745.69;;;7.94;100.00
73651;BME280;61944;52.538;6.108;2023-03-14T07:20:56;98764.81;;;7.92;100.00
73651;BME280;61944;52.538;6.108;2023-03-14T07:23:21;98762.69;;;7.62;100.00
73651;BME280;61944;52.538;6.108;2023-03-14T07:25:47;98777.41;;;7.63;100.00
73651;BME280;61944;52.538;6.108;2023-03-14T07:28:12;98774.94;;;7.72;100.00
73651;BME280;61944;52.538;6.108;2023-03-14T07:30:39;98787.47;;;7.94;100.00
73651;BME280;61944;52.538;6.108;2023-03-14T07:33:04;98790.16;;;8.09;100.00
73651;BME280;61944;52.538;6.108;2023-03-14T07:35:29;98798.28;;;7.89;100.00
73651;BME280;61944;52.538;6.108;2023-03-14T07:37:55;98805.22;;;7.63;100.00
73651;BME280;61944;52.538;6.108;2023-03-14T07:40:20;98813.06;;;7.82;100.00
73651;BME280;61944;52.538;6.108;2023-03-14T07:42:46;98823.53;;;7.64;100.00
73651;BME280;61944;52.538;6.108;2023-03-14T07:45:11;98827.19;;;7.53;100.00
73651;BME280;61944;52.538;6.108;2023-03-14T07:47:37;98846.22;;;7.62;100.00
73651;BME280;61944;52.538;6.108;2023-03-14T07:50:04;98865.78;;;7.51;100.00
73651;BME280;61944;52.538;6.108;2023-03-14T07:52:29;98875.34;;;7.47;100.00
73651;BME280;61944;52.538;6.108;2023-03-14T07:54:55;98895.72;;;7.22;100.00
73651;BME280;61944;52.538;6.108;2023-03-14T07:57:20;98898.59;;;7.01;100.00
73651;BME280;61944;52.538;6.108;2023-03-14T07:59:46;98904.91;;;7.12;100.00
73651;BME280;61944;52.538;6.108;2023-03-14T08:02:11;98925.66;;;6.79;100.00
73651;BME280;61944;52.538;6.108;2023-03-14T08:04:39;98946.28;;;6.99;100.00
73651;BME280;61944;52.538;6.108;2023-03-14T08:07:05;98936.78;;;6.89;100.00
73651;BME280;61944;52.538;6.108;2023-03-14T08:09:30;98955.03;;;6.94;100.00
73651;BME280;61944;52.538;6.108;2023-03-14T08:11:56;98965.38;;;6.72;100.00
73651;BME280;61944;52.538;6.108;2023-03-14T08:14:21;98974.94;;;6.53;100.00
73651;BME280;61944;52.538;6.108;2023-03-14T08:16:49;99003.94;;;6.56;100.00
73651;BME280;61944;52.538;6.108;2023-03-14T08:19:14;99006.69;;;6.45;100.00
73651;BME280;61944;52.538;6.108;2023-03-14T08:21:40;99018.59;;;6.35;100.00
73651;BME280;61944;52.538;6.108;2023-03-14T08:24:06;99033.28;;;6.24;100.00
73651;BME280;61944;52.538;6.108;2023-03-14T08:26:31;99043.50;;;6.02;100.00
73651;BME280;61944;52.538;6.108;2023-03-14T08:28:56;99053.03;;;5.98;100.00
73651;BME280;61944;52.538;6.108;2023-03-14T08:31:22;99063.03;;;6.20;100.00
73651;BME280;61944;52.538;6.108;2023-03-14T08:33:47;99058.28;;;6.31;100.00
73651;BME280;61944;52.538;6.108;2023-03-14T08:36:13;99084.84;;;6.25;100.00
73651;BME280;61944;52.538;6.108;2023-03-14T08:38:38;99099.59;;;6.51;100.00
73651;BME280;61944;52.538;6.108;2023-03-14T08:41:04;99087.69;;;6.40;100.00
73651;BME280;61944;52.538;6.108;2023-03-14T08:43:30;99115.47;;;6.33;100.00
73651;BME280;61944;52.538;6.108;2023-03-14T08:46:02;99113.44;;;6.29;100.00
73651;BME280;61944;52.538;6.108;2023-03-14T08:48:30;99123.41;;;6.38;100.00
73651;BME280;61944;52.538;6.108;2023-03-14T08:51:01;99140.81;;;6.20;100.00
73651;BME280;61944;52.538;6.108;2023-03-14T08:53:28;99158.34;;;6.35;100.00
73651;BME280;61944;52.538;6.108;2023-03-14T08:55:54;99165.47;;;6.33;100.00
73651;BME280;61944;52.538;6.108;2023-03-14T08:58:21;99178.97;;;6.30;100.00
73651;BME280;61944;52.538;6.108;2023-03-14T09:00:49;99200.81;;;6.36;100.00
73651;BME280;61944;52.538;6.108;2023-03-14T09:03:15;99199.66;;;6.51;100.00
73651;BME280;61944;52.538;6.108;2023-03-14T09:05:41;99202.03;;;6.49;100.00
73651;BME280;61944;52.538;6.108;2023-03-14T09:08:09;99210.00;;;6.58;100.00
73651;BME280;61944;52.538;6.108;2023-03-14T09:10:36;99235.34;;;6.38;100.00
73651;BME280;61944;52.538;6.108;2023-03-14T09:13:04;99251.19;;;6.27;100.00
73651;BME280;61944;52.538;6.108;2023-03-14T09:15:29;99259.16;;;6.36;100.00
73651;BME280;61944;52.538;6.108;2023-03-14T09:17:55;99278.59;;;6.32;100.00
73651;BME280;61944;52.538;6.108;2023-03-14T09:20:20;99267.78;;;6.20;100.00
73651;BME280;61944;52.538;6.108;2023-03-14T09:22:46;99283.13;;;6.58;100.00
73651;BME280;61944;52.538;6.108;2023-03-14T09:25:11;99288.50;;;6.29;100.00
73651;BME280;61944;52.538;6.108;2023-03-14T09:27:37;99304.63;;;6.68;100.00
73651;BME280;61944;52.538;6.108;2023-03-14T09:30:04;99307.69;;;6.53;100.00
73651;BME280;61944;52.538;6.108;2023-03-14T09:32:32;99329.63;;;6.72;100.00
73651;BME280;61944;52.538;6.108;2023-03-14T09:35:00;99321.94;;;6.44;100.00
73651;BME280;61944;52.538;6.108;2023-03-14T09:37:26;99320.84;;;6.59;100.00
73651;BME280;61944;52.538;6.108;2023-03-14T09:39:56;99333.25;;;6.80;100.00
73651;BME280;61944;52.538;6.108;2023-03-14T09:42:26;99331.66;;;6.79;100.00
73651;BME280;61944;52.538;6.108;2023-03-14T09:45:01;99349.97;;;6.87;100.00
73651;BME280;61944;52.538;6.108;2023-03-14T09:47:27;99354.44;;;7.02;100.00
73651;BME280;61944;52.538;6.108;2023-03-14T09:49:58;99361.06;;;6.80;100.00
73651;BME280;61944;52.538;6.108;2023-03-14T09:52:33;99380.16;;;6.81;100.00
73651;BME280;61944;52.538;6.108;2023-03-14T09:55:13;99377.72;;;6.76;100.00
73651;BME280;61944;52.538;6.108;2023-03-14T09:57:41;99387.22;;;6.64;100.00
73651;BME280;61944;52.538;6.108;2023-03-14T10:00:15;99396.81;;;6.78;100.00
73651;BME280;61944;52.538;6.108;2023-03-14T10:03:22;99412.59;;;6.59;100.00
73651;BME280;61944;52.538;6.108;2023-03-14T10:05:49;99400.66;;;6.59;100.00
73651;BME280;61944;52.538;6.108;2023-03-14T10:08:15;99438.91;;;6.72;100.00
73651;BME280;61944;52.538;6.108;2023-03-14T10:10:41;99460.41;;;6.79;100.00
73651;BME280;61944;52.538;6.108;2023-03-14T10:13:25;99471.34;;;6.58;100.00
73651;BME280;61944;52.538;6.108;2023-03-14T10:15:54;99495.97;;;6.59;100.00
73651;BME280;61944;52.538;6.108;2023-03-14T10:18:22;99465.91;;;5.86;100.00
73651;BME280;61944;52.538;6.108;2023-03-14T10:20:51;99468.53;;;6.06;100.00
73651;BME280;61944;52.538;6.108;2023-03-14T10:23:28;99486.06;;;6.14;100.00
73651;BME280;61944;52.538;6.108;2023-03-14T10:26:14;99489.47;;;6.37;100.00
73651;BME280;61944;52.538;6.108;2023-03-14T10:28:46;99503.91;;;6.57;100.00
73651;BME280;61944;52.538;6.108;2023-03-14T10:31:12;99524.56;;;6.56;100.00
73651;BME280;61944;52.538;6.108;2023-03-14T10:33:38;99512.13;;;6.43;100.00
73651;BME280;61944;52.538;6.108;2023-03-14T10:36:23;99540.13;;;6.64;100.00
73651;BME280;61944;52.538;6.108;2023-03-14T10:38:58;99559.66;;;6.71;100.00
73651;BME280;61944;52.538;6.108;2023-03-14T10:41:25;99549.81;;;6.40;100.00
73651;BME280;61944;52.538;6.108;2023-03-14T10:43:54;99586.47;;;6.53;100.00
73651;BME280;61944;52.538;6.108;2023-03-14T10:46:24;99591.09;;;6.38;100.00
73651;BME280;61944;52.538;6.108;2023-03-14T10:48:52;99586.56;;;6.60;100.00
73651;BME280;61944;52.538;6.108;2023-03-14T10:51:27;99582.44;;;6.43;100.00
73651;BME280;61944;52.538;6.108;2023-03-14T10:54:23;99627.44;;;6.56;100.00
73651;BME280;61944;52.538;6.108;2023-03-14T10:56:59;99627.00;;;6.54;100.00
73651;BME280;61944;52.538;6.108;2023-03-14T10:59:36;99614.91;;;6.77;100.00
73651;BME280;61944;52.538;6.108;2023-03-14T11:05:08;99663.78;;;6.78;100.00
73651;BME280;61944;52.538;6.108;2023-03-14T11:07:41;99661.38;;;6.72;100.00
73651;BME280;61944;52.538;6.108;2023-03-14T11:10:14;99686.00;;;6.74;99.59
73651;BME280;61944;52.538;6.108;2023-03-14T11:21:08;99721.91;;;6.86;100.00
73651;BME280;61944;52.538;6.108;2023-03-14T11:29:12;99745.06;;;6.98;99.08
73651;BME280;61944;52.538;6.108;2023-03-14T11:31:44;99747.50;;;7.03;99.64
73651;BME280;61944;52.538;6.108;2023-03-14T11:34:12;99765.91;;;7.15;100.00
73651;BME280;61944;52.538;6.108;2023-03-14T11:36:44;99779.06;;;7.18;100.00
73651;BME280;61944;52.538;6.108;2023-03-14T11:39:14;99790.63;;;6.86;93.87
73651;BME280;61944;52.538;6.108;2023-03-14T11:41:43;99784.69;;;7.21;97.62
73651;BME280;61944;52.538;6.108;2023-03-14T11:44:24;99798.88;;;7.12;92.86
73651;BME280;61944;52.538;6.108;2023-03-14T11:47:04;99805.38;;;7.24;87.81
73651;BME280;61944;52.538;6.108;2023-03-14T11:49:34;99815.78;;;7.30;83.36
73651;BME280;61944;52.538;6.108;2023-03-14T11:52:10;99813.78;;;7.31;85.65
73651;BME280;61944;52.538;6.108;2023-03-14T11:54:51;99816.25;;;7.36;88.03
73651;BME280;61944;52.538;6.108;2023-03-14T11:57:19;99846.88;;;7.40;82.25
73651;BME280;61944;52.538;6.108;2023-03-14T11:59:51;99829.06;;;7.44;92.68
73651;BME280;61944;52.538;6.108;2023-03-14T12:02:35;99852.34;;;7.29;85.54
73651;BME280;61944;52.538;6.108;2023-03-14T12:05:31;99841.50;;;7.20;88.96
73651;BME280;61944;52.538;6.108;2023-03-14T12:10:51;99870.53;;;7.19;90.61
73651;BME280;61944;52.538;6.108;2023-03-14T12:13:19;99862.25;;;7.26;95.11
73651;BME280;61944;52.538;6.108;2023-03-14T12:15:50;99879.44;;;7.32;83.83
73651;BME280;61944;52.538;6.108;2023-03-14T12:21:12;99904.06;;;7.30;84.97
73651;BME280;61944;52.538;6.108;2023-03-14T12:23:44;99918.22;;;7.18;84.41
73651;BME280;61944;52.538;6.108;2023-03-14T12:28:52;99930.56;;;7.20;86.35
73651;BME280;61944;52.538;6.108;2023-03-14T12:39:47;99962.28;;;7.12;78.17
73651;BME280;61944;52.538;6.108;2023-03-14T12:44:51;99985.91;;;7.56;83.12
73651;BME280;61944;52.538;6.108;2023-03-14T12:49:42;99970.50;;;7.65;79.85
73651;BME280;61944;52.538;6.108;2023-03-14T12:52:16;99964.28;;;7.45;77.01
73651;BME280;61944;52.538;6.108;2023-03-14T12:55:05;99975.38;;;7.42;82.08
73651;BME280;61944;52.538;6.108;2023-03-14T13:00:16;99988.44;;;7.07;79.00
73651;BME280;61944;52.538;6.108;2023-03-14T13:02:44;99985.38;;;7.16;77.72
73651;BME280;61944;52.538;6.108;2023-03-14T13:05:18;99999.00;;;7.25;74.07
73651;BME280;61944;52.538;6.108;2023-03-14T13:10:22;100017.69;;;7.54;74.11
73651;BME280;61944;52.538;6.108;2023-03-14T13:15:47;100017.06;;;7.35;74.09
73651;BME280;61944;52.538;6.108;2023-03-14T13:18:16;100039.13;;;7.50;75.83
73651;BME280;61944;52.538;6.108;2023-03-14T13:20:45;100035.75;;;7.34;74.04
73651;BME280;61944;52.538;6.108;2023-03-14T13:23:24;100047.41;;;7.17;73.44
73651;BME280;61944;52.538;6.108;2023-03-14T13:25:50;100053.19;;;7.31;71.63
73651;BME280;61944;52.538;6.108;2023-03-14T13:28:16;100055.38;;;7.18;74.32
73651;BME280;61944;52.538;6.108;2023-03-14T13:30:44;100042.16;;;7.38;80.66
73651;BME280;61944;52.538;6.108;2023-03-14T13:33:18;100072.78;;;7.38;68.90
73651;BME280;61944;52.538;6.108;2023-03-14T13:35:47;100088.28;;;7.66;80.13
73651;BME280;61944;52.538;6.108;2023-03-14T13:38:24;100098.22;;;7.63;75.38
73651;BME280;61944;52.538;6.108;2023-03-14T13:40:54;100086.31;;;7.40;81.17
73651;BME280;61944;52.538;6.108;2023-03-14T13:43:28;100104.22;;;6.89;71.88
73651;BME280;61944;52.538;6.108;2023-03-14T13:46:02;100114.50;;;7.35;82.63
73651;BME280;61944;52.538;6.108;2023-03-14T13:48:33;100112.09;;;7.06;70.93
73651;BME280;61944;52.538;6.108;2023-03-14T13:51:05;100106.88;;;7.05;77.01
73651;BME280;61944;52.538;6.108;2023-03-14T13:53:33;100124.44;;;7.09;80.66
73651;BME280;61944;52.538;6.108;2023-03-14T13:56:09;100139.91;;;7.33;74.35
73651;BME280;61944;52.538;6.108;2023-03-14T13:58:37;100146.38;;;7.14;79.84